Overview Statistics Trail Chart Weather Telemetry Raw packets
 

This is the latest recevied weather packets stored in our database for station/object VA2EYZ-13. If no packets are shown the sender has not sent any weather packets the latest 10 day(s).

<< 15 16 17 18 19 20 21 >>
Time Temp. Humidity Pressure Rain* Wind** Luminosity Snow
1788099519 22.78° C 69% 1016 hPa - - - -
1788098255 21.67° C 71% 1017.2 hPa - - - -
1788097074 21.67° C 71% 1017.2 hPa - - - -
1788095437 21.67° C 71% 1017.2 hPa - - - -
1788093498 20° C 75% 1017.5 hPa - - - -
1788092754 20° C 75% 1017.5 hPa - - - -
1788089835 18.89° C 76% 1017 hPa - - - -
1788089194 18.33° C 76% 1017.5 hPa - - - -
1788086848 18.33° C 76% 1017.5 hPa - - - -
1788085920 17.78° C 76% 1017.5 hPa - - - -
1788083024 18.33° C 74% 1016 hPa - - - -
1788080149 18.33° C 72% 1017.2 hPa - - - -
1788079389 18.33° C 72% 1017.2 hPa - - - -
1788078805 18.33° C 71% 1017.2 hPa - - - -
1788076841 18.89° C 70% 1017.1 hPa - - - -
1788076538 18.89° C 70% 1017.1 hPa - - - -
1788075508 18.33° C 70% 1017.1 hPa - - - -
1788073213 18.89° C 68% 1017.1 hPa - - - -
1788071441 19.44° C 67% 1017.3 hPa - - - -
1788068630 18.33° C 68% 1017.3 hPa - - - -
1788065416 18.33° C 67% 1017.4 hPa - - - -
1788062292 18.33° C 64% 1017.3 hPa - - - -
1788053285 19.44° C 60% 1018 hPa - - - -
1788052890 19.44° C 59% 1018 hPa - - - -
1788051615 20° C 58% 1018 hPa - - - -

* Rain since midnight (hover to see other rain measurements)
** Current wind speed in m/s (hover to see current wind gust speed)